Time;durP1;ratioP1;P1;durP2;ratioP2;P2;SDS_P1;SDS_P2;PMS_P1;PMS_P2;Temp;Humidity;BMP_temperature;BMP_pressure;BME280_temperature;BME280_humidity;BME280_pressure;Samples;Min_cycle;Max_cycle;Signal;HPM_P1;HPM_P2
2022/06/23 00:01:24;;;;;;;11.55;10.75;;;16.80;99.90;;;;;;4901073;29;20036;-88
2022/06/23 00:03:54;;;;;;;13.88;12.73;;;16.80;99.90;;;;;;4883563;29;20029;-90
2022/06/23 00:06:35;;;;;;;14.87;13.53;;;16.80;99.90;;;;;;4890963;29;20064;-90
2022/06/23 00:09:21;;;;;;;13.02;11.73;;;16.70;99.90;;;;;;4892416;29;20040;-90
2022/06/23 00:11:49;;;;;;;12.52;11.52;;;16.70;99.90;;;;;;4907898;29;20040;-91
2022/06/23 00:14:15;;;;;;;12.75;11.75;;;16.70;99.90;;;;;;4887280;29;20024;-90
2022/06/23 00:16:41;;;;;;;15.77;14.27;;;16.60;99.90;;;;;;4923372;29;20036;-91
2022/06/23 00:19:12;;;;;;;15.55;14.43;;;16.60;99.90;;;;;;4903327;29;20106;-90
2022/06/23 00:21:39;;;;;;;;;;;16.50;99.90;;;;;;4920797;29;20044;-91
2022/06/23 00:24:15;;;;;;;16.80;14.90;;;16.40;99.90;;;;;;4904504;29;19911;-91
2022/06/23 00:26:41;;;;;;;14.20;13.00;;;16.40;99.90;;;;;;4910228;29;20092;-90
2022/06/23 00:29:11;;;;;;;15.40;14.02;;;16.30;99.90;;;;;;4885680;29;20067;-90
2022/06/23 00:31:44;;;;;;;13.63;12.43;;;16.30;99.90;;;;;;4888173;29;20421;-90
2022/06/23 00:34:20;;;;;;;13.38;12.45;;;16.30;99.90;;;;;;4903771;29;20024;-90
2022/06/23 00:37:03;;;;;;;14.68;13.23;;;16.20;99.90;;;;;;4881804;29;20517;-90
2022/06/23 00:39:40;;;;;;;13.32;12.20;;;16.20;99.90;;;;;;4924516;29;20094;-91
2022/06/23 00:42:26;;;;;;;13.90;12.70;;;16.20;99.90;;;;;;4885224;29;20056;-90
2022/06/23 00:45:10;;;;;;;13.55;12.57;;;16.20;99.90;;;;;;4902582;29;20108;-91
2022/06/23 00:48:08;;;;;;;14.13;13.02;;;16.20;99.90;;;;;;4922815;29;20046;-91
2022/06/23 00:50:45;;;;;;;14.30;13.00;;;16.20;99.90;;;;;;4909051;29;20040;-90
2022/06/23 00:53:11;;;;;;;14.93;13.82;;;16.20;99.90;;;;;;4916023;29;20103;-88
2022/06/23 00:55:52;;;;;;;14.90;13.68;;;16.10;99.90;;;;;;4922859;29;20107;-90
2022/06/23 00:58:29;;;;;;;13.40;12.38;;;16.10;99.90;;;;;;4909480;29;20029;-90
2022/06/23 01:01:14;;;;;;;12.15;11.35;;;16.10;99.90;;;;;;4918521;29;20519;-91
2022/06/23 01:04:00;;;;;;;12.45;11.55;;;16.00;99.90;;;;;;4921810;29;20056;-91
2022/06/23 01:07:03;;;;;;;12.45;11.50;;;15.90;99.90;;;;;;4926324;29;20032;-92
2022/06/23 01:09:46;;;;;;;14.13;13.10;;;15.80;99.90;;;;;;4927857;29;20073;-90
2022/06/23 01:12:27;;;;;;;14.00;12.80;;;15.80;99.90;;;;;;4927982;29;20524;-91
2022/06/23 01:15:06;;;;;;;15.40;14.30;;;15.70;99.90;;;;;;4922317;29;20035;-91
2022/06/23 01:17:40;;;;;;;12.00;11.10;;;15.70;99.90;;;;;;4930673;29;20016;-91
2022/06/23 01:20:21;;;;;;;14.50;13.35;;;15.60;99.90;;;;;;4911046;29;20028;-91
2022/06/23 01:22:49;;;;;;;14.48;13.30;;;15.60;99.90;;;;;;4933553;29;20031;-91
2022/06/23 01:25:43;;;;;;;15.57;14.15;;;15.60;99.90;;;;;;4932249;29;20036;-90
2022/06/23 01:28:16;;;;;;;15.88;14.65;;;15.50;99.90;;;;;;4926033;29;20068;-89
2022/06/23 01:31:03;;;;;;;15.15;13.80;;;15.50;99.90;;;;;;4919176;29;20040;-90
2022/06/23 01:33:57;;;;;;;13.85;12.38;;;15.50;99.90;;;;;;4940371;29;20044;-91
2022/06/23 01:36:22;;;;;;;13.98;12.82;;;15.50;99.90;;;;;;4932846;29;20371;-91
2022/06/23 01:39:12;;;;;;;14.38;13.18;;;15.50;99.90;;;;;;4911303;29;20033;-93
2022/06/23 01:41:47;;;;;;;14.48;13.23;;;15.50;99.90;;;;;;4911303;29;20061;-91
2022/06/23 01:44:45;;;;;;;12.23;11.40;;;15.40;99.90;;;;;;4938370;29;20020;-91
2022/06/23 01:47:38;;;;;;;13.15;12.15;;;15.40;99.90;;;;;;4933007;29;20016;-91
2022/06/23 01:50:13;;;;;;;14.60;13.32;;;15.40;99.90;;;;;;4889010;29;20025;-91
2022/06/23 01:52:42;;;;;;;13.77;12.57;;;15.40;99.90;;;;;;4908666;29;20028;-90
2022/06/23 01:55:24;;;;;;;13.07;12.07;;;15.40;99.90;;;;;;4933045;29;20028;-90
2022/06/23 01:58:03;;;;;;;12.25;10.38;;;15.30;99.90;;;;;;4894431;29;20051;-90
2022/06/23 02:00:29;;;;;;;13.05;12.23;;;15.30;99.90;;;;;;4896077;29;20040;-90
2022/06/23 02:03:02;;;;;;;13.02;11.73;;;15.30;99.90;;;;;;4921280;29;20036;-90
2022/06/23 02:05:28;;;;;;;12.60;11.35;;;15.30;99.90;;;;;;4905560;29;20040;-90
2022/06/23 02:08:36;;;;;;;12.15;11.10;;;15.20;99.90;;;;;;4911518;29;20031;-90
2022/06/23 02:11:34;;;;;;;13.05;12.05;;;15.20;99.90;;;;;;4905705;29;20175;-89
2022/06/23 02:14:13;;;;;;;13.93;12.85;;;15.10;99.90;;;;;;4862819;29;20028;-90
2022/06/23 02:16:53;;;;;;;16.20;14.73;;;15.10;99.90;;;;;;4913232;29;20036;-91
2022/06/23 02:19:44;;;;;;;15.95;14.40;;;15.00;99.90;;;;;;4897673;29;20032;-91
2022/06/23 02:22:21;;;;;;;15.23;14.13;;;14.90;99.90;;;;;;4909062;29;20044;-90
2022/06/23 02:25:03;;;;;;;16.58;14.32;;;14.90;99.90;;;;;;4903072;29;20524;-91
2022/06/23 02:27:46;;;;;;;16.25;14.90;;;14.80;99.90;;;;;;4900682;29;20049;-90
2022/06/23 02:30:50;;;;;;;15.30;13.90;;;14.80;99.90;;;;;;4909529;29;20059;-89
2022/06/23 02:33:27;;;;;;;15.75;14.65;;;14.70;99.90;;;;;;4838877;29;20038;-91
2022/06/23 02:35:58;;;;;;;15.05;14.05;;;14.60;99.90;;;;;;4896261;29;20042;-90
2022/06/23 02:38:26;;;;;;;;;;;14.50;99.90;;;;;;4904699;29;20044;-90
2022/06/23 02:41:15;;;;;;;13.93;12.93;;;14.40;99.90;;;;;;4899542;29;19911;-91
2022/06/23 02:43:44;;;;;;;13.30;12.30;;;14.30;99.90;;;;;;4890041;29;20032;-90
2022/06/23 02:46:34;;;;;;;15.43;13.98;;;14.20;99.90;;;;;;4928589;29;20031;-90
2022/06/23 02:49:19;;;;;;;18.10;16.75;;;14.20;99.90;;;;;;4891155;29;20029;-89
2022/06/23 02:52:13;;;;;;;17.52;16.17;;;14.10;99.90;;;;;;4906299;29;20523;-90
2022/06/23 02:54:38;;;;;;;19.90;18.33;;;14.10;99.90;;;;;;4923132;29;20031;-90
2022/06/23 02:57:29;;;;;;;20.45;18.77;;;14.00;99.90;;;;;;4912050;29;20552;-90
2022/06/23 03:00:17;;;;;;;19.05;17.45;;;14.00;99.90;;;;;;4926547;29;20060;-90
2022/06/23 03:03:22;;;;;;;18.40;17.00;;;14.00;99.90;;;;;;4923518;29;20036;-90
2022/06/23 03:05:57;;;;;;;16.33;15.13;;;14.00;99.90;;;;;;4925903;29;20115;-90
2022/06/23 03:08:35;;;;;;;17.65;16.35;;;14.00;99.90;;;;;;4922615;29;20031;-90
2022/06/23 03:11:18;;;;;;;16.10;14.80;;;14.00;99.90;;;;;;4909537;29;20119;-90
2022/06/23 03:13:57;;;;;;;14.85;13.50;;;14.00;99.90;;;;;;4912052;29;20073;-90
2022/06/23 03:16:35;;;;;;;16.88;15.40;;;14.00;99.90;;;;;;4922469;29;20028;-90
2022/06/23 03:19:12;;;;;;;16.73;15.27;;;14.00;99.90;;;;;;4901550;29;20087;-90
2022/06/23 03:21:47;;;;;;;16.13;14.60;;;14.00;99.90;;;;;;4915865;29;20029;-91
2022/06/23 03:24:57;;;;;;;19.00;17.20;;;13.90;99.90;;;;;;4899743;29;20051;-91
2022/06/23 03:27:32;;;;;;;17.65;16.05;;;13.80;99.90;;;;;;4857328;29;20025;-91
2022/06/23 03:30:36;;;;;;;18.90;17.42;;;13.80;99.90;;;;;;4923330;29;20512;-91
2022/06/23 03:33:29;;;;;;;19.00;17.55;;;13.80;99.90;;;;;;4880859;29;20038;-90
2022/06/23 03:36:11;;;;;;;18.98;17.38;;;13.70;99.90;;;;;;4932729;29;20051;-90
2022/06/23 03:41:46;;;;;;;17.27;16.08;;;13.70;99.90;;;;;;4929556;29;20090;-90
2022/06/23 03:44:47;;;;;;;17.92;16.40;;;13.60;99.90;;;;;;4897216;29;20119;-89
2022/06/23 03:47:23;;;;;;;16.55;15.43;;;13.60;99.90;;;;;;4874641;29;20032;-89
2022/06/23 03:49:57;;;;;;;16.27;14.73;;;13.70;99.90;;;;;;4925851;29;20036;-90
2022/06/23 03:52:41;;;;;;;17.73;16.38;;;13.70;99.90;;;;;;4899293;29;20039;-90
2022/06/23 03:55:19;;;;;;;16.67;14.95;;;13.80;99.90;;;;;;4915465;29;20057;-90
2022/06/23 03:57:53;;;;;;;16.33;15.20;;;13.90;99.90;;;;;;4915728;29;20032;-90
2022/06/23 04:00:22;;;;;;;16.00;14.85;;;14.00;99.90;;;;;;4920270;29;20043;-89
2022/06/23 04:03:05;;;;;;;14.98;13.85;;;14.10;99.90;;;;;;4887656;29;20385;-91
2022/06/23 04:05:56;;;;;;;13.27;12.23;;;14.20;99.90;;;;;;4912811;29;20523;-90
2022/06/23 04:08:24;;;;;;;9.85;9.05;;;14.30;99.90;;;;;;4923964;29;20128;-89
2022/06/23 04:10:53;;;;;;;13.30;12.07;;;14.40;99.90;;;;;;4921968;29;20037;-90
2022/06/23 04:13:19;;;;;;;13.88;12.80;;;14.40;99.90;;;;;;4910252;29;20036;-89
2022/06/23 04:15:45;;;;;;;13.10;12.20;;;14.50;99.90;;;;;;4893929;29;20089;-90
2022/06/23 04:18:19;;;;;;;14.00;13.00;;;14.60;99.90;;;;;;4927018;29;20023;-90
2022/06/23 04:20:54;;;;;;;13.85;12.55;;;14.60;99.90;;;;;;4914655;29;20040;-90
2022/06/23 04:23:40;;;;;;;13.63;12.60;;;14.60;99.90;;;;;;4906446;29;20024;-89
2022/06/23 04:26:14;;;;;;;14.85;13.75;;;14.70;99.90;;;;;;4913765;29;20027;-90
2022/06/23 04:28:49;;;;;;;15.70;13.30;;;14.80;99.90;;;;;;4917934;29;20060;-91
2022/06/23 04:31:19;;;;;;;14.93;13.48;;;14.80;99.90;;;;;;4909601;29;20117;-90
2022/06/23 04:33:47;;;;;;;15.70;14.40;;;14.90;99.90;;;;;;4908847;29;20039;-90
2022/06/23 04:36:21;;;;;;;15.73;14.38;;;14.90;99.90;;;;;;4916854;29;20055;-90
2022/06/23 04:38:52;;;;;;;14.98;13.68;;;15.00;99.90;;;;;;4915958;29;20562;-91
2022/06/23 04:41:24;;;;;;;15.77;14.52;;;15.00;99.90;;;;;;4907004;29;20062;-90
2022/06/23 04:43:57;;;;;;;16.27;14.98;;;15.00;99.90;;;;;;4919713;29;20024;-90
2022/06/23 04:46:37;;;;;;;16.70;14.48;;;15.00;99.90;;;;;;4899322;29;20076;-90
2022/06/23 04:49:17;;;;;;;16.07;14.43;;;15.10;99.90;;;;;;4920585;29;20067;-91
2022/06/23 04:51:52;;;;;;;15.93;14.63;;;15.20;99.90;;;;;;4924423;29;20023;-90
2022/06/23 04:54:23;;;;;;;20.00;15.95;;;15.30;99.90;;;;;;4913484;29;20028;-90
2022/06/23 04:57:00;;;;;;;17.42;15.52;;;15.40;99.90;;;;;;4900248;29;20042;-90
2022/06/23 04:59:36;;;;;;;15.60;14.38;;;15.50;99.90;;;;;;4891885;29;20132;-89
2022/06/23 05:02:20;;;;;;;14.68;13.32;;;15.70;99.90;;;;;;4919190;29;20028;-90
2022/06/23 05:05:14;;;;;;;15.18;14.05;;;15.90;99.90;;;;;;4918941;29;20501;-91
2022/06/23 05:08:02;;;;;;;15.25;14.23;;;16.10;99.90;;;;;;4907322;29;20123;-90
2022/06/23 05:10:32;;;;;;;15.93;14.82;;;16.30;99.90;;;;;;4905179;29;20051;-91
2022/06/23 05:13:06;;;;;;;15.77;14.63;;;16.50;99.90;;;;;;4933746;29;20032;-90
2022/06/23 05:15:36;;;;;;;13.55;12.45;;;17.00;99.90;;;;;;4903295;29;20056;-91
2022/06/23 05:18:15;;;;;;;12.52;11.63;;;18.00;99.90;;;;;;4899268;29;20039;-92
2022/06/23 05:20:52;;;;;;;14.43;12.55;;;19.10;99.90;;;;;;4905423;29;20028;-89
2022/06/23 05:23:27;;;;;;;10.55;9.80;;;20.40;99.90;;;;;;4915951;29;20047;-92
2022/06/23 05:25:54;;;;;;;9.65;8.95;;;21.50;99.90;;;;;;4889178;29;20025;-91
2022/06/23 05:28:26;;;;;;;9.73;9.02;;;22.70;99.90;;;;;;4919514;29;20031;-92
2022/06/23 05:30:55;;;;;;;8.38;7.65;;;23.80;99.90;;;;;;4914362;29;20036;-91
2022/06/23 05:33:27;;;;;;;7.97;7.28;;;25.00;99.90;;;;;;4921767;29;20116;-91
2022/06/23 05:35:59;;;;;;;7.10;6.60;;;25.90;95.00;;;;;;4914235;29;20437;-91
2022/06/23 05:38:33;;;;;;;6.63;6.00;;;26.90;91.90;;;;;;4923209;29;20044;-90
2022/06/23 05:41:02;;;;;;;6.28;5.72;;;27.10;73.70;;;;;;4909927;29;20060;-91
2022/06/23 05:43:31;;;;;;;6.30;5.85;;;28.00;69.90;;;;;;4922475;29;20516;-90
2022/06/23 05:46:01;;;;;;;6.35;5.75;;;28.80;65.90;;;;;;4904078;29;20396;-90
2022/06/23 05:48:47;;;;;;;5.50;5.10;;;29.20;63.50;;;;;;4920553;29;20040;-91
2022/06/23 05:51:27;;;;;;;6.72;5.55;;;30.00;60.80;;;;;;4918419;29;20067;-91
2022/06/23 05:54:05;;;;;;;5.97;5.07;;;30.70;57.70;;;;;;4906921;29;20102;-91
2022/06/23 05:56:30;;;;;;;4.45;3.80;;;31.30;54.50;;;;;;4908199;29;20089;-91
2022/06/23 05:59:06;;;;;;;6.85;4.40;;;31.90;53.20;;;;;;4923007;29;20586;-91
2022/06/23 06:01:43;;;;;;;5.32;4.18;;;32.50;50.30;;;;;;4927397;29;20092;-91
2022/06/23 06:04:23;;;;;;;4.90;3.28;;;32.50;49.80;;;;;;4919394;29;20399;-91
2022/06/23 06:06:49;;;;;;;4.88;3.42;;;33.10;48.50;;;;;;4917513;29;20032;-90
2022/06/23 06:09:37;;;;;;;4.60;3.53;;;32.70;46.80;;;;;;4918665;29;20438;-92
2022/06/23 06:12:27;;;;;;;3.30;2.97;;;32.30;48.00;;;;;;4915156;29;20037;-92
2022/06/23 06:15:04;;;;;;;3.47;2.58;;;32.70;47.00;;;;;;4900494;29;20028;-89
2022/06/23 06:17:32;;;;;;;5.40;3.13;;;32.90;46.40;;;;;;4889065;29;20493;-91
2022/06/23 06:20:02;;;;;;;4.75;2.50;;;33.20;45.20;;;;;;4901170;29;20032;-91
2022/06/23 06:22:47;;;;;;;;;;;33.40;44.40;;;;;;4926838;29;20032;-91
2022/06/23 06:25:28;;;;;;;2.80;2.42;;;34.00;44.00;;;;;;4914528;29;20307;-92
2022/06/23 06:27:58;;;;;;;4.28;2.58;;;33.90;43.40;;;;;;4902087;29;20039;-91
2022/06/23 06:30:36;;;;;;;3.50;2.55;;;33.70;44.20;;;;;;4916641;29;20083;-92
2022/06/23 06:33:04;;;;;;;3.80;2.58;;;34.10;45.10;;;;;;4915719;29;20038;-90
2022/06/23 06:35:36;;;;;;;3.28;2.88;;;33.60;44.20;;;;;;4919560;29;20032;-92
2022/06/23 06:38:08;;;;;;;5.32;3.00;;;33.30;45.50;;;;;;4907205;29;20409;-92
2022/06/23 06:40:37;;;;;;;4.70;2.55;;;32.60;46.20;;;;;;4898134;29;20033;-91
2022/06/23 06:43:13;;;;;;;3.03;2.70;;;33.10;47.00;;;;;;4922881;29;20024;-90
2022/06/23 06:45:40;;;;;;;4.38;2.88;;;33.30;46.20;;;;;;4919107;29;20033;-92
2022/06/23 06:48:43;;;;;;;3.83;3.40;;;34.40;46.10;;;;;;4915102;29;20028;-92
2022/06/23 06:51:21;;;;;;;7.40;2.70;;;35.60;44.30;;;;;;4898352;29;20040;-92
2022/06/23 06:54:10;;;;;;;4.40;2.97;;;35.00;44.20;;;;;;4911468;29;20050;-92
2022/06/23 06:57:01;;;;;;;5.53;3.17;;;35.50;44.30;;;;;;4919084;29;20060;-91
2022/06/23 06:59:43;;;;;;;5.03;3.05;;;35.10;44.70;;;;;;4916511;29;20083;-91
2022/06/23 07:02:18;;;;;;;4.30;2.90;;;35.20;44.50;;;;;;4907531;29;20067;-92
2022/06/23 07:05:01;;;;;;;4.53;3.20;;;36.00;43.50;;;;;;4911982;29;20028;-91
2022/06/23 07:07:36;;;;;;;4.68;3.10;;;36.10;42.40;;;;;;4926362;29;20516;-91
2022/06/23 07:10:43;;;;;;;3.40;3.10;;;36.30;42.40;;;;;;4909860;29;20109;-92
2022/06/23 07:13:17;;;;;;;4.45;3.92;;;35.60;44.30;;;;;;4932370;29;20028;-89
2022/06/23 07:15:53;;;;;;;5.72;3.55;;;35.50;44.60;;;;;;4903111;29;20496;-91
2022/06/23 07:18:35;;;;;;;5.25;4.15;;;36.10;44.50;;;;;;4902076;29;20034;-91
2022/06/23 07:21:27;;;;;;;4.57;4.18;;;35.40;43.90;;;;;;4911830;29;20398;-90
2022/06/23 07:23:59;;;;;;;4.72;3.95;;;35.40;44.50;;;;;;4895665;29;20704;-92
2022/06/23 07:26:32;;;;;;;4.95;4.38;;;34.80;46.40;;;;;;4901644;29;20101;-91
2022/06/23 07:29:07;;;;;;;4.90;4.43;;;34.70;47.60;;;;;;4887209;29;20032;-91
2022/06/23 07:31:50;;;;;;;7.95;4.20;;;35.20;46.70;;;;;;4898149;29;20581;-91
2022/06/23 07:34:18;;;;;;;5.30;4.80;;;35.70;46.30;;;;;;4917931;29;20535;-93
2022/06/23 07:36:55;;;;;;;5.10;4.68;;;36.90;44.50;;;;;;4921192;29;20024;-92
2022/06/23 07:39:25;;;;;;;4.88;4.40;;;37.00;44.10;;;;;;4902775;29;20029;-91
2022/06/23 07:41:59;;;;;;;6.53;3.83;;;37.30;44.00;;;;;;4904961;29;20091;-91
2022/06/23 07:44:41;;;;;;;4.60;4.18;;;37.50;42.80;;;;;;4920466;29;20091;-91
2022/06/23 07:47:07;;;;;;;6.78;4.90;;;37.50;42.70;;;;;;4906353;29;20089;-91
2022/06/23 07:49:33;;;;;;;5.63;4.30;;;37.00;43.50;;;;;;4904641;29;20027;-92
2022/06/23 07:52:00;;;;;;;5.93;4.47;;;37.20;44.50;;;;;;4914617;29;20024;-91
2022/06/23 07:54:27;;;;;;;6.00;4.32;;;37.70;44.10;;;;;;4919340;29;20056;-89
2022/06/23 07:56:54;;;;;;;7.03;5.18;;;37.30;43.30;;;;;;4910791;29;20032;-91
2022/06/23 07:59:27;;;;;;;6.13;4.95;;;36.80;43.80;;;;;;4921920;29;20052;-91
2022/06/23 08:02:08;;;;;;;5.05;4.50;;;35.70;46.10;;;;;;4906266;29;20035;-92
2022/06/23 08:04:54;;;;;;;4.25;3.95;;;36.50;46.10;;;;;;4923594;29;20040;-90
2022/06/23 08:07:20;;;;;;;7.13;5.05;;;36.90;44.00;;;;;;4920523;29;20032;-91
2022/06/23 08:10:00;;;;;;;4.57;4.18;;;35.90;44.90;;;;;;4916479;29;20063;-91
2022/06/23 08:12:53;;;;;;;;;;;36.20;45.20;;;;;;4893803;29;20032;-89
2022/06/23 08:18:18;;;;;;;;;;;37.20;43.30;;;;;;4920510;29;20035;-91
2022/06/23 08:20:50;;;;;;;5.30;4.13;;;37.80;42.80;;;;;;4904959;29;20059;-92
2022/06/23 08:23:20;;;;;;;4.22;3.83;;;38.30;42.50;;;;;;4905166;29;20043;-91
2022/06/23 08:25:46;;;;;;;5.32;4.45;;;38.20;42.10;;;;;;4895865;29;20021;-91
2022/06/23 08:28:12;;;;;;;4.95;4.20;;;37.90;42.30;;;;;;4923402;29;20051;-89
2022/06/23 08:30:40;;;;;;;7.45;4.28;;;37.00;44.10;;;;;;4919634;29;20040;-91
2022/06/23 08:33:06;;;;;;;5.43;4.45;;;37.40;43.50;;;;;;4900714;29;20544;-91
2022/06/23 08:35:41;;;;;;;4.05;3.70;;;37.30;43.90;;;;;;4912483;29;20033;-90
2022/06/23 08:38:08;;;;;;;7.28;3.63;;;38.80;43.20;;;;;;4917239;29;20120;-92
2022/06/23 08:40:55;;;;;;;3.60;3.20;;;39.70;40.60;;;;;;4917604;29;20026;-91
2022/06/23 08:43:39;;;;;;;4.30;3.45;;;40.60;40.00;;;;;;4917897;29;20031;-92
2022/06/23 08:46:10;;;;;;;7.28;3.63;;;41.80;38.20;;;;;;4920849;29;20036;-93
2022/06/23 08:48:46;;;;;;;3.60;3.13;;;42.00;37.70;;;;;;4914842;29;20032;-92
2022/06/23 08:51:12;;;;;;;3.88;3.50;;;42.60;37.60;;;;;;4918799;29;20044;-90
2022/06/23 08:53:40;;;;;;;3.72;3.35;;;41.80;37.10;;;;;;4915613;29;20032;-91
2022/06/23 08:56:12;;;;;;;5.25;3.50;;;42.50;37.20;;;;;;4916964;29;20032;-88
2022/06/23 08:58:47;;;;;;;3.33;2.83;;;43.30;36.00;;;;;;4905710;29;20050;-91
2022/06/23 09:01:51;;;;;;;4.65;2.83;;;43.40;36.40;;;;;;4898897;29;20092;-92
2022/06/23 09:04:36;;;;;;;3.22;2.58;;;43.90;35.60;;;;;;4816599;29;20038;-92
2022/06/23 09:07:16;;;;;;;4.60;3.22;;;43.60;35.50;;;;;;4828223;29;20039;-92
2022/06/23 09:09:45;;;;;;;4.70;3.33;;;42.80;36.20;;;;;;4893092;29;20707;-91
2022/06/23 09:12:20;;;;;;;5.78;3.25;;;43.60;35.90;;;;;;4894752;29;20040;-91
2022/06/23 09:14:51;;;;;;;4.00;3.55;;;42.50;34.70;;;;;;4923144;29;20027;-91
2022/06/23 09:17:43;;;;;;;6.43;3.55;;;41.10;37.00;;;;;;4921980;29;20051;-92
2022/06/23 09:20:14;;;;;;;4.38;3.55;;;40.60;38.30;;;;;;4908149;29;20052;-90
2022/06/23 09:23:04;;;;;;;3.70;3.40;;;38.60;39.10;;;;;;4906095;29;20023;-90
2022/06/23 09:25:59;;;;;;;3.75;3.45;;;38.50;40.70;;;;;;4917434;29;20040;-91
2022/06/23 09:28:54;;;;;;;3.88;3.53;;;37.70;41.60;;;;;;4915813;29;20032;-90
2022/06/23 09:31:42;;;;;;;4.13;3.67;;;36.30;44.00;;;;;;4914117;29;20040;-90
2022/06/23 09:34:13;;;;;;;3.35;2.97;;;36.70;44.60;;;;;;4914219;29;20513;-91
2022/06/23 09:36:55;;;;;;;5.53;3.50;;;37.80;43.20;;;;;;4900031;29;20382;-91
2022/06/23 09:39:45;;;;;;;6.13;2.97;;;39.80;40.20;;;;;;4914985;29;20087;-92
2022/06/23 09:42:48;;;;;;;3.47;3.17;;;41.30;38.60;;;;;;4893619;29;20033;-91
2022/06/23 09:45:22;;;;;;;4.38;3.55;;;42.00;35.50;;;;;;4914782;29;20032;-90
2022/06/23 09:48:22;;;;;;;4.38;3.03;;;40.30;36.80;;;;;;4906854;29;20048;-91
2022/06/23 09:51:06;;;;;;;2.78;2.58;;;40.30;38.20;;;;;;4918437;29;20040;-91
2022/06/23 09:54:01;;;;;;;3.30;3.00;;;41.30;38.10;;;;;;4913501;29;20054;-91
2022/06/23 09:56:54;;;;;;;3.88;3.00;;;43.00;35.50;;;;;;4927946;29;20504;-93
2022/06/23 09:59:29;;;;;;;2.90;2.70;;;43.40;33.60;;;;;;4928781;29;20115;-91
2022/06/23 10:01:55;;;;;;;3.10;2.65;;;43.20;33.70;;;;;;4930800;29;20028;-91
2022/06/23 10:04:29;;;;;;;2.67;2.42;;;43.30;35.10;;;;;;4902938;29;20519;-92
2022/06/23 10:07:27;;;;;;;4.90;2.75;;;42.90;34.80;;;;;;4916258;29;20045;-92
2022/06/23 10:10:21;;;;;;;2.85;2.58;;;41.80;34.30;;;;;;4918464;29;20032;-90
2022/06/23 10:13:00;;;;;;;4.65;2.40;;;40.90;36.50;;;;;;4882497;29;20033;-91
2022/06/23 10:15:25;;;;;;;2.47;2.22;;;41.70;35.30;;;;;;4899908;29;20532;-92
2022/06/23 10:18:06;;;;;;;3.60;2.60;;;42.80;35.20;;;;;;4905816;29;20019;-91
2022/06/23 10:20:40;;;;;;;2.65;2.33;;;43.90;33.80;;;;;;4910669;29;20028;-92
2022/06/23 10:23:27;;;;;;;2.45;2.25;;;44.30;33.60;;;;;;4896186;29;20028;-91
2022/06/23 10:25:56;;;;;;;2.75;2.55;;;42.50;32.40;;;;;;4921838;29;20547;-91
2022/06/23 10:28:48;;;;;;;3.15;2.85;;;40.50;35.40;;;;;;4895767;29;20064;-90
2022/06/23 10:31:38;;;;;;;3.00;2.80;;;39.50;37.00;;;;;;4894145;29;20409;-89
2022/06/23 10:34:27;;;;;;;4.00;2.78;;;38.70;38.10;;;;;;4888318;29;20037;-89
2022/06/23 10:36:53;;;;;;;4.93;2.97;;;39.20;38.40;;;;;;4908065;29;20493;-90
2022/06/23 10:39:51;;;;;;;6.88;3.05;;;38.10;38.20;;;;;;4915048;29;20083;-90
2022/06/23 10:42:35;;;;;;;3.20;2.42;;;37.80;40.70;;;;;;4914409;29;20029;-89
2022/06/23 10:45:22;;;;;;;3.25;2.70;;;38.70;40.90;;;;;;4911488;29;20054;-91
2022/06/23 10:48:18;;;;;;;3.47;2.35;;;39.20;39.10;;;;;;4913857;29;20055;-93
2022/06/23 10:50:52;;;;;;;3.22;2.92;;;39.60;38.30;;;;;;4922955;29;20504;-90
2022/06/23 10:53:50;;;;;;;3.58;2.88;;;38.10;38.30;;;;;;4924917;29;20401;-91
2022/06/23 10:56:43;;;;;;;3.50;2.65;;;37.80;40.70;;;;;;4902033;29;20040;-90
2022/06/23 10:59:18;;;;;;;3.97;3.10;;;36.70;41.30;;;;;;4911353;29;20067;-89
2022/06/23 11:02:20;;;;;;;3.67;3.38;;;36.10;43.30;;;;;;4891171;29;20495;-90
2022/06/23 11:05:08;;;;;;;4.60;3.78;;;34.90;43.20;;;;;;4891309;29;20486;-89
2022/06/23 11:08:02;;;;;;;3.60;3.30;;;34.60;46.60;;;;;;4895899;29;20495;-90
2022/06/23 11:10:54;;;;;;;4.68;3.53;;;34.00;46.20;;;;;;4878401;29;20433;-90
2022/06/23 11:13:59;;;;;;;3.70;3.40;;;34.70;46.20;;;;;;4915279;29;20505;-89
2022/06/23 11:17:00;;;;;;;5.05;3.75;;;35.30;43.30;;;;;;4914127;29;20107;-90
2022/06/23 11:19:35;;;;;;;4.95;3.47;;;35.10;43.60;;;;;;4872110;29;20106;-90
2022/06/23 11:22:28;;;;;;;3.58;3.28;;;35.30;43.60;;;;;;4917920;29;20072;-89
2022/06/23 11:24:54;;;;;;;3.35;3.05;;;34.50;43.10;;;;;;4891403;29;20040;-89
2022/06/23 11:27:44;;;;;;;3.58;3.28;;;35.00;44.00;;;;;;4885406;29;20041;-87
2022/06/23 11:30:14;;;;;;;4.03;3.55;;;34.20;43.50;;;;;;4910342;29;20394;-90
2022/06/23 11:33:07;;;;;;;8.18;3.42;;;33.70;44.90;;;;;;4915236;29;20496;-90
2022/06/23 11:35:39;;;;;;;3.50;3.05;;;33.70;45.30;;;;;;4887225;29;20051;-91
2022/06/23 11:38:33;;;;;;;3.97;3.65;;;34.00;46.30;;;;;;4928883;29;20023;-90
2022/06/23 11:41:07;;;;;;;3.42;3.13;;;34.30;44.50;;;;;;4916175;29;20028;-90
2022/06/23 11:43:48;;;;;;;3.63;3.13;;;34.60;44.40;;;;;;4887118;29;20040;-90
2022/06/23 11:46:16;;;;;;;5.75;2.72;;;34.60;42.90;;;;;;4892228;29;20033;-91
2022/06/23 12:17:30;;;;;;;4.10;2.35;;;33.40;46.00;;;;;;5051121;28;20480;-65
2022/06/23 12:20:00;;;;;;;6.22;2.72;;;33.30;45.00;;;;;;5013504;28;20139;-65
2022/06/23 12:22:39;;;;;;;3.60;3.20;;;33.30;44.50;;;;;;5008629;28;20021;-65
2022/06/23 12:25:26;;;;;;;4.03;2.92;;;33.30;44.40;;;;;;5005466;28;20905;-65
2022/06/23 12:28:15;;;;;;;4.18;3.00;;;32.90;44.90;;;;;;5012800;28;20502;-65
2022/06/23 12:30:59;;;;;;;5.03;3.00;;;32.50;45.30;;;;;;4991138;28;20636;-65
2022/06/23 12:33:35;;;;;;;6.18;3.03;;;32.70;46.30;;;;;;4994131;28;20061;-65
2022/06/23 12:36:08;;;;;;;3.53;3.22;;;32.70;45.70;;;;;;5016114;28;20022;-65
2022/06/23 12:38:43;;;;;;;5.25;3.00;;;32.40;45.60;;;;;;5011788;28;20058;-65
2022/06/23 12:41:46;;;;;;;3.05;2.85;;;32.50;45.50;;;;;;5016786;28;20359;-65
2022/06/23 12:44:18;;;;;;;3.40;3.10;;;32.80;46.50;;;;;;5016553;28;20583;-66
2022/06/23 12:47:13;;;;;;;3.53;3.20;;;33.60;44.70;;;;;;5011941;28;20021;-65
2022/06/23 12:49:48;;;;;;;5.55;3.28;;;34.60;44.30;;;;;;5013701;28;20038;-65
2022/06/23 12:52:25;;;;;;;8.30;2.72;;;35.40;42.30;;;;;;5015913;28;20517;-65
2022/06/23 12:55:18;;;;;;;7.13;3.60;;;35.30;41.70;;;;;;4997546;28;20677;-65
2022/06/23 12:58:14;;;;;;;5.28;3.08;;;34.00;42.70;;;;;;5009865;28;20030;-65
2022/06/23 13:00:50;;;;;;;5.22;3.28;;;33.40;44.20;;;;;;4983137;28;20031;-65
2022/06/23 13:03:43;;;;;;;3.60;3.28;;;33.10;44.20;;;;;;4998948;28;20545;-65
2022/06/23 13:06:09;;;;;;;5.10;3.00;;;32.80;43.80;;;;;;4995607;28;20038;-65
2022/06/23 13:08:54;;;;;;;4.80;3.75;;;32.80;44.60;;;;;;4990894;28;20526;-65
2022/06/23 13:11:30;;;;;;;3.30;3.00;;;32.90;44.20;;;;;;4993232;28;20089;-65
2022/06/23 13:14:06;;;;;;;3.40;3.10;;;33.50;44.80;;;;;;4995092;28;20514;-64
2022/06/23 13:16:50;;;;;;;5.15;3.58;;;33.20;44.70;;;;;;4993420;28;20105;-65
2022/06/23 13:19:34;;;;;;;4.43;3.80;;;32.80;45.10;;;;;;4975402;28;20041;-65
2022/06/23 13:22:09;;;;;;;3.28;3.00;;;33.00;45.60;;;;;;4978149;28;20074;-65
2022/06/23 13:24:41;;;;;;;4.35;2.95;;;33.30;45.10;;;;;;4981371;28;20022;-65
2022/06/23 13:27:11;;;;;;;6.07;3.22;;;33.70;43.60;;;;;;4977561;28;20061;-65
2022/06/23 13:29:43;;;;;;;;;;;33.70;43.00;;;;;;4984618;28;20391;-65
2022/06/23 13:32:12;;;;;;;4.05;3.75;;;33.70;43.10;;;;;;4983910;28;20005;-65
2022/06/23 13:34:55;;;;;;;4.28;3.00;;;33.40;44.70;;;;;;4987780;28;20491;-65
2022/06/23 13:37:31;;;;;;;4.03;2.92;;;33.20;44.70;;;;;;4982766;28;20022;-65
2022/06/23 13:40:21;;;;;;;4.00;2.65;;;33.50;44.20;;;;;;4981320;28;20030;-65
2022/06/23 13:42:56;;;;;;;;;;;33.90;43.60;;;;;;4981542;28;20165;-65
2022/06/23 13:45:28;;;;;;;3.78;3.13;;;34.40;43.20;;;;;;4980071;28;19921;-65
2022/06/23 13:48:19;;;;;;;3.33;3.03;;;34.40;43.00;;;;;;4982536;28;20069;-65
2022/06/23 13:50:53;;;;;;;3.80;2.85;;;34.50;42.90;;;;;;4976864;28;20098;-65
2022/06/23 13:53:44;;;;;;;3.95;3.58;;;33.70;43.70;;;;;;4983360;28;20027;-65
2022/06/23 13:56:22;;;;;;;5.38;4.00;;;32.90;45.70;;;;;;4977732;28;20041;-65
2022/06/23 13:59:10;;;;;;;4.43;3.58;;;32.60;47.30;;;;;;4984538;28;20081;-65
2022/06/23 14:01:45;;;;;;;6.60;3.58;;;32.60;47.40;;;;;;4980079;28;20066;-65
2022/06/23 14:04:19;;;;;;;4.70;3.47;;;32.30;46.90;;;;;;4977685;28;20035;-65
2022/06/23 14:06:51;;;;;;;5.05;4.15;;;32.00;46.60;;;;;;4977938;28;20521;-65
2022/06/23 14:09:32;;;;;;;4.03;3.70;;;31.80;47.60;;;;;;4980308;28;20039;-65
2022/06/23 14:12:04;;;;;;;;;;;31.80;48.60;;;;;;4983143;28;20030;-65
2022/06/23 14:14:58;;;;;;;7.95;3.38;;;32.10;48.00;;;;;;4979255;28;20290;-65
2022/06/23 14:17:42;;;;;;;3.05;2.72;;;32.30;47.00;;;;;;4976975;28;20664;-65